KESF/ESF METAR and TAF weather

Enter ICAO airport designator
Station Type Date Time Source
KESF METAR 2019/08/22 19:53 UTC NOAA

KESF 221953Z AUTO 22007KT 10SM CLR 34/23 A2993 RMK AO2 SLP134 T03390228


Station Type Date Time Source
KESF Decoded METAR 2019/08/22 19:53 UTC NOAA

Station name not available
Aug 22, 2019 - 03:53 PM EDT / 2019.08.22 1953 UTC
Wind: from the SW (220 degrees) at 8 MPH (7 KT):0
Visibility: 10 mile(s):0
Sky conditions: clear
Temperature: 93.0 F (33.9 C)
Heat index: 101.8 F (38.8 C):1
Dew Point: 73.0 F (22.8 C)
Relative Humidity: 52%
Pressure (altimeter): 29.93 in. Hg (1013 hPa)
ob: KESF 221953Z AUTO 22007KT 10SM CLR 34/23 A2993 RMK AO2 SLP134 T03390228
cycle: 20

Station Type Date Time Source
KESF TAF UTC NOAA

Error!

Example: see airport list